sensor_id;sensor_type;location;lat;lon;timestamp;temperature;humidity
3976;DHT22;2002;48.812;9.180;2023-06-26T00:01:30;22.10;16.10
3976;DHT22;2002;48.812;9.180;2023-06-26T00:03:57;22.00;18.90
3976;DHT22;2002;48.812;9.180;2023-06-26T00:06:24;21.90;17.50
3976;DHT22;2002;48.812;9.180;2023-06-26T00:08:54;22.00;19.00
3976;DHT22;2002;48.812;9.180;2023-06-26T00:11:21;22.10;20.20
3976;DHT22;2002;48.812;9.180;2023-06-26T00:13:47;22.20;18.30
3976;DHT22;2002;48.812;9.180;2023-06-26T00:16:12;22.30;18.60
3976;DHT22;2002;48.812;9.180;2023-06-26T00:18:38;22.40;19.20
3976;DHT22;2002;48.812;9.180;2023-06-26T00:21:04;22.30;13.80
3976;DHT22;2002;48.812;9.180;2023-06-26T00:23:29;21.90;12.30
3976;DHT22;2002;48.812;9.180;2023-06-26T00:25:56;21.80;15.80
3976;DHT22;2002;48.812;9.180;2023-06-26T00:28:22;22.00;14.10
3976;DHT22;2002;48.812;9.180;2023-06-26T00:30:47;22.10;15.40
3976;DHT22;2002;48.812;9.180;2023-06-26T00:33:13;22.20;15.10
3976;DHT22;2002;48.812;9.180;2023-06-26T00:35:38;22.30;18.10
3976;DHT22;2002;48.812;9.180;2023-06-26T00:38:04;22.40;14.40
3976;DHT22;2002;48.812;9.180;2023-06-26T00:40:29;22.50;17.60
3976;DHT22;2002;48.812;9.180;2023-06-26T00:42:55;22.50;17.90
3976;DHT22;2002;48.812;9.180;2023-06-26T00:45:21;22.50;17.60
3976;DHT22;2002;48.812;9.180;2023-06-26T00:47:47;22.30;19.00
3976;DHT22;2002;48.812;9.180;2023-06-26T00:50:12;22.20;18.70
3976;DHT22;2002;48.812;9.180;2023-06-26T00:52:39;22.00;17.00
3976;DHT22;2002;48.812;9.180;2023-06-26T00:55:05;21.90;17.20
3976;DHT22;2002;48.812;9.180;2023-06-26T00:57:31;21.90;16.50
3976;DHT22;2002;48.812;9.180;2023-06-26T00:59:57;21.90;17.40
3976;DHT22;2002;48.812;9.180;2023-06-26T01:02:22;22.10;18.90
3976;DHT22;2002;48.812;9.180;2023-06-26T01:04:52;22.20;20.00
3976;DHT22;2002;48.812;9.180;2023-06-26T01:07:18;22.30;17.10
3976;DHT22;2002;48.812;9.180;2023-06-26T01:09:47;22.30;19.00
3976;DHT22;2002;48.812;9.180;2023-06-26T01:12:13;22.40;19.90
3976;DHT22;2002;48.812;9.180;2023-06-26T01:14:39;22.40;17.90
3976;DHT22;2002;48.812;9.180;2023-06-26T01:17:05;22.20;16.80
3976;DHT22;2002;48.812;9.180;2023-06-26T01:19:32;21.90;15.50
3976;DHT22;2002;48.812;9.180;2023-06-26T01:22:24;21.90;16.40
3976;DHT22;2002;48.812;9.180;2023-06-26T01:25:29;22.00;14.10
3976;DHT22;2002;48.812;9.180;2023-06-26T01:28:07;22.20;15.00
3976;DHT22;2002;48.812;9.180;2023-06-26T01:30:37;22.20;17.10
3976;DHT22;2002;48.812;9.180;2023-06-26T01:33:03;22.30;35.40
3976;DHT22;2002;48.812;9.180;2023-06-26T01:35:29;22.30;18.00
3976;DHT22;2002;48.812;9.180;2023-06-26T01:38:15;22.40;18.50
3976;DHT22;2002;48.812;9.180;2023-06-26T01:40:41;22.10;17.00
3976;DHT22;2002;48.812;9.180;2023-06-26T01:43:11;21.90;31.30
3976;DHT22;2002;48.812;9.180;2023-06-26T01:45:39;21.80;15.40
3976;DHT22;2002;48.812;9.180;2023-06-26T01:48:06;22.00;14.80
3976;DHT22;2002;48.812;9.180;2023-06-26T01:50:33;22.10;15.40
3976;DHT22;2002;48.812;9.180;2023-06-26T01:53:18;22.10;15.90
3976;DHT22;2002;48.812;9.180;2023-06-26T01:56:05;22.30;17.30
3976;DHT22;2002;48.812;9.180;2023-06-26T01:58:32;22.30;15.10
3976;DHT22;2002;48.812;9.180;2023-06-26T02:00:58;22.30;15.40
3976;DHT22;2002;48.812;9.180;2023-06-26T02:03:24;22.20;12.60
3976;DHT22;2002;48.812;9.180;2023-06-26T02:05:50;22.00;12.10
3976;DHT22;2002;48.812;9.180;2023-06-26T02:08:16;21.80;10.90
3976;DHT22;2002;48.812;9.180;2023-06-26T02:10:42;22.00;10.80
3976;DHT22;2002;48.812;9.180;2023-06-26T02:13:07;22.10;13.40
3976;DHT22;2002;48.812;9.180;2023-06-26T02:15:33;22.20;12.80
3976;DHT22;2002;48.812;9.180;2023-06-26T02:17:58;22.20;14.50
3976;DHT22;2002;48.812;9.180;2023-06-26T02:20:24;22.30;14.40
3976;DHT22;2002;48.812;9.180;2023-06-26T02:22:49;22.40;17.10
3976;DHT22;2002;48.812;9.180;2023-06-26T02:25:15;22.30;13.80
3976;DHT22;2002;48.812;9.180;2023-06-26T02:27:42;22.00;12.50
3976;DHT22;2002;48.812;9.180;2023-06-26T02:30:08;21.70;9.90
3976;DHT22;2002;48.812;9.180;2023-06-26T02:32:34;21.90;13.60
3976;DHT22;2002;48.812;9.180;2023-06-26T02:34:59;22.10;13.40
3976;DHT22;2002;48.812;9.180;2023-06-26T02:37:25;22.10;15.10
3976;DHT22;2002;48.812;9.180;2023-06-26T02:39:51;22.20;14.60
3976;DHT22;2002;48.812;9.180;2023-06-26T02:42:16;22.30;14.50
3976;DHT22;2002;48.812;9.180;2023-06-26T02:44:42;22.30;15.90
3976;DHT22;2002;48.812;9.180;2023-06-26T02:47:07;22.30;16.90
3976;DHT22;2002;48.812;9.180;2023-06-26T02:49:33;22.20;16.70
3976;DHT22;2002;48.812;9.180;2023-06-26T02:51:58;22.10;21.40
3976;DHT22;2002;48.812;9.180;2023-06-26T02:54:24;22.00;21.20
3976;DHT22;2002;48.812;9.180;2023-06-26T02:56:49;21.90;21.70
3976;DHT22;2002;48.812;9.180;2023-06-26T02:59:15;21.80;19.20
3976;DHT22;2002;48.812;9.180;2023-06-26T03:01:41;21.90;18.40
3976;DHT22;2002;48.812;9.180;2023-06-26T03:04:06;22.10;20.30
3976;DHT22;2002;48.812;9.180;2023-06-26T03:06:32;22.20;19.50
3976;DHT22;2002;48.812;9.180;2023-06-26T03:08:57;22.20;18.80
3976;DHT22;2002;48.812;9.180;2023-06-26T03:11:23;22.30;20.00
3976;DHT22;2002;48.812;9.180;2023-06-26T03:13:48;22.30;18.00
3976;DHT22;2002;48.812;9.180;2023-06-26T03:16:14;22.30;17.20
3976;DHT22;2002;48.812;9.180;2023-06-26T03:18:40;22.10;15.60
3976;DHT22;2002;48.812;9.180;2023-06-26T03:21:05;21.90;15.30
3976;DHT22;2002;48.812;9.180;2023-06-26T03:23:31;21.90;15.30
3976;DHT22;2002;48.812;9.180;2023-06-26T03:25:56;22.00;16.50
3976;DHT22;2002;48.812;9.180;2023-06-26T03:28:22;22.10;18.00
3976;DHT22;2002;48.812;9.180;2023-06-26T03:30:47;22.20;16.70
3976;DHT22;2002;48.812;9.180;2023-06-26T03:33:13;22.30;18.20
3976;DHT22;2002;48.812;9.180;2023-06-26T03:35:38;22.30;18.70
3976;DHT22;2002;48.812;9.180;2023-06-26T03:38:04;22.30;18.20
3976;DHT22;2002;48.812;9.180;2023-06-26T03:40:30;22.30;19.00
3976;DHT22;2002;48.812;9.180;2023-06-26T03:42:56;22.10;15.50
3976;DHT22;2002;48.812;9.180;2023-06-26T03:45:21;22.00;14.80
3976;DHT22;2002;48.812;9.180;2023-06-26T03:47:47;21.90;14.70
3976;DHT22;2002;48.812;9.180;2023-06-26T03:50:17;21.80;16.60
3976;DHT22;2002;48.812;9.180;2023-06-26T03:52:42;22.00;15.40
3976;DHT22;2002;48.812;9.180;2023-06-26T03:55:08;22.10;18.50
3976;DHT22;2002;48.812;9.180;2023-06-26T03:57:34;22.20;19.30
3976;DHT22;2002;48.812;9.180;2023-06-26T03:59:59;22.20;18.20
3976;DHT22;2002;48.812;9.180;2023-06-26T04:02:25;22.30;17.60
3976;DHT22;2002;48.812;9.180;2023-06-26T04:04:51;22.30;17.10
3976;DHT22;2002;48.812;9.180;2023-06-26T04:07:18;22.30;19.20
3976;DHT22;2002;48.812;9.180;2023-06-26T04:09:43;22.30;19.80
3976;DHT22;2002;48.812;9.180;2023-06-26T04:12:09;22.20;17.10
3976;DHT22;2002;48.812;9.180;2023-06-26T04:14:34;21.90;16.50
3976;DHT22;2002;48.812;9.180;2023-06-26T04:17:00;21.90;18.10
3976;DHT22;2002;48.812;9.180;2023-06-26T04:19:28;21.90;19.30
3976;DHT22;2002;48.812;9.180;2023-06-26T04:21:54;22.00;16.10
3976;DHT22;2002;48.812;9.180;2023-06-26T04:24:20;22.10;18.10
3976;DHT22;2002;48.812;9.180;2023-06-26T04:26:45;22.20;16.20
3976;DHT22;2002;48.812;9.180;2023-06-26T04:29:11;22.20;16.70
3976;DHT22;2002;48.812;9.180;2023-06-26T04:31:36;22.30;17.30
3976;DHT22;2002;48.812;9.180;2023-06-26T04:34:04;22.30;22.10
3976;DHT22;2002;48.812;9.180;2023-06-26T04:36:30;22.20;22.50
3976;DHT22;2002;48.812;9.180;2023-06-26T04:38:57;21.90;17.10
3976;DHT22;2002;48.812;9.180;2023-06-26T04:41:22;21.90;17.00
3976;DHT22;2002;48.812;9.180;2023-06-26T04:43:48;22.00;19.50
3976;DHT22;2002;48.812;9.180;2023-06-26T04:46:13;22.10;20.50
3976;DHT22;2002;48.812;9.180;2023-06-26T04:48:39;22.10;16.70
3976;DHT22;2002;48.812;9.180;2023-06-26T04:51:04;22.20;17.70
3976;DHT22;2002;48.812;9.180;2023-06-26T04:53:30;22.20;19.50
3976;DHT22;2002;48.812;9.180;2023-06-26T04:55:55;22.30;19.90
3976;DHT22;2002;48.812;9.180;2023-06-26T04:58:21;22.30;20.40
3976;DHT22;2002;48.812;9.180;2023-06-26T05:00:47;22.00;14.60
3976;DHT22;2002;48.812;9.180;2023-06-26T05:03:13;21.70;14.90
3976;DHT22;2002;48.812;9.180;2023-06-26T05:05:39;21.60;20.20
3976;DHT22;2002;48.812;9.180;2023-06-26T05:08:21;21.50;17.50
3976;DHT22;2002;48.812;9.180;2023-06-26T05:10:47;21.40;15.80
3976;DHT22;2002;48.812;9.180;2023-06-26T05:13:13;21.60;15.30
3976;DHT22;2002;48.812;9.180;2023-06-26T05:15:41;21.80;14.50
3976;DHT22;2002;48.812;9.180;2023-06-26T05:18:07;21.80;18.60
3976;DHT22;2002;48.812;9.180;2023-06-26T05:20:34;21.90;15.90
3976;DHT22;2002;48.812;9.180;2023-06-26T05:23:01;21.90;14.70
3976;DHT22;2002;48.812;9.180;2023-06-26T05:25:27;22.00;14.60
3976;DHT22;2002;48.812;9.180;2023-06-26T05:27:55;22.00;15.10
3976;DHT22;2002;48.812;9.180;2023-06-26T05:30:20;22.00;19.00
3976;DHT22;2002;48.812;9.180;2023-06-26T05:32:47;22.00;17.30
3976;DHT22;2002;48.812;9.180;2023-06-26T05:35:13;21.70;11.10
3976;DHT22;2002;48.812;9.180;2023-06-26T05:37:40;21.30;8.80
3976;DHT22;2002;48.812;9.180;2023-06-26T05:40:07;21.20;12.20
3976;DHT22;2002;48.812;9.180;2023-06-26T05:42:34;21.50;13.10
3976;DHT22;2002;48.812;9.180;2023-06-26T05:44:59;21.60;17.50
3976;DHT22;2002;48.812;9.180;2023-06-26T05:47:25;21.70;13.80
3976;DHT22;2002;48.812;9.180;2023-06-26T05:49:50;21.80;14.20
3976;DHT22;2002;48.812;9.180;2023-06-26T05:52:16;21.80;16.40
3976;DHT22;2002;48.812;9.180;2023-06-26T05:54:42;21.80;14.60
3976;DHT22;2002;48.812;9.180;2023-06-26T05:57:09;21.90;13.20
3976;DHT22;2002;48.812;9.180;2023-06-26T05:59:36;21.90;19.90
3976;DHT22;2002;48.812;9.180;2023-06-26T06:02:04;21.90;16.20
3976;DHT22;2002;48.812;9.180;2023-06-26T06:04:30;21.50;12.30
3976;DHT22;2002;48.812;9.180;2023-06-26T06:06:55;21.20;9.80
3976;DHT22;2002;48.812;9.180;2023-06-26T06:09:21;21.30;16.30
3976;DHT22;2002;48.812;9.180;2023-06-26T06:11:46;21.50;18.40
3976;DHT22;2002;48.812;9.180;2023-06-26T06:14:12;21.60;14.60
3976;DHT22;2002;48.812;9.180;2023-06-26T06:16:37;21.60;22.40
3976;DHT22;2002;48.812;9.180;2023-06-26T06:19:03;21.70;13.10
3976;DHT22;2002;48.812;9.180;2023-06-26T06:21:32;21.80;16.90
3976;DHT22;2002;48.812;9.180;2023-06-26T06:23:57;21.80;15.70
3976;DHT22;2002;48.812;9.180;2023-06-26T06:26:23;21.90;18.60
3976;DHT22;2002;48.812;9.180;2023-06-26T06:28:49;21.90;17.50
3976;DHT22;2002;48.812;9.180;2023-06-26T06:31:14;21.90;15.80
3976;DHT22;2002;48.812;9.180;2023-06-26T06:33:40;21.90;12.10
3976;DHT22;2002;48.812;9.180;2023-06-26T06:36:05;21.40;4.30
3976;DHT22;2002;48.812;9.180;2023-06-26T06:38:31;21.20;10.40
3976;DHT22;2002;48.812;9.180;2023-06-26T06:40:57;21.50;11.90
3976;DHT22;2002;48.812;9.180;2023-06-26T06:43:22;21.60;11.30
3976;DHT22;2002;48.812;9.180;2023-06-26T06:45:48;21.70;14.30
3976;DHT22;2002;48.812;9.180;2023-06-26T06:48:13;21.70;13.30
3976;DHT22;2002;48.812;9.180;2023-06-26T06:50:39;21.70;14.80
3976;DHT22;2002;48.812;9.180;2023-06-26T06:53:04;21.80;11.20
3976;DHT22;2002;48.812;9.180;2023-06-26T06:55:30;21.80;12.50
3976;DHT22;2002;48.812;9.180;2023-06-26T06:57:55;21.90;18.60
3976;DHT22;2002;48.812;9.180;2023-06-26T07:00:21;21.90;15.60
3976;DHT22;2002;48.812;9.180;2023-06-26T07:02:46;21.90;18.50
3976;DHT22;2002;48.812;9.180;2023-06-26T07:05:12;21.70;18.50
3976;DHT22;2002;48.812;9.180;2023-06-26T07:07:39;21.50;20.10
3976;DHT22;2002;48.812;9.180;2023-06-26T07:10:06;21.40;24.60
3976;DHT22;2002;48.812;9.180;2023-06-26T07:12:33;21.40;18.90
3976;DHT22;2002;48.812;9.180;2023-06-26T07:15:00;21.20;17.90
3976;DHT22;2002;48.812;9.180;2023-06-26T07:17:26;21.40;19.10
3976;DHT22;2002;48.812;9.180;2023-06-26T07:19:51;21.50;25.90
3976;DHT22;2002;48.812;9.180;2023-06-26T07:22:17;21.70;20.50
3976;DHT22;2002;48.812;9.180;2023-06-26T07:24:45;21.70;18.40
3976;DHT22;2002;48.812;9.180;2023-06-26T07:27:11;21.80;37.70
3976;DHT22;2002;48.812;9.180;2023-06-26T07:29:36;21.80;20.00
3976;DHT22;2002;48.812;9.180;2023-06-26T07:32:02;21.80;20.50
3976;DHT22;2002;48.812;9.180;2023-06-26T07:34:28;21.60;17.00
3976;DHT22;2002;48.812;9.180;2023-06-26T07:36:53;21.20;8.90
3976;DHT22;2002;48.812;9.180;2023-06-26T07:39:19;21.00;9.10
3976;DHT22;2002;48.812;9.180;2023-06-26T07:41:44;21.30;16.80
3976;DHT22;2002;48.812;9.180;2023-06-26T07:44:10;21.50;25.50
3976;DHT22;2002;48.812;9.180;2023-06-26T07:46:35;21.60;18.00
3976;DHT22;2002;48.812;9.180;2023-06-26T07:49:01;21.70;15.70
3976;DHT22;2002;48.812;9.180;2023-06-26T07:51:26;21.70;21.70
3976;DHT22;2002;48.812;9.180;2023-06-26T07:53:52;21.80;16.30
3976;DHT22;2002;48.812;9.180;2023-06-26T07:56:17;21.80;22.00
3976;DHT22;2002;48.812;9.180;2023-06-26T07:58:43;21.90;18.20
3976;DHT22;2002;48.812;9.180;2023-06-26T08:01:09;21.70;10.00
3976;DHT22;2002;48.812;9.180;2023-06-26T08:03:34;21.40;10.00
3976;DHT22;2002;48.812;9.180;2023-06-26T08:06:00;21.20;7.40
3976;DHT22;2002;48.812;9.180;2023-06-26T08:08:25;21.10;11.30
3976;DHT22;2002;48.812;9.180;2023-06-26T08:10:51;20.90;10.30
3976;DHT22;2002;48.812;9.180;2023-06-26T08:13:16;20.90;8.50
3976;DHT22;2002;48.812;9.180;2023-06-26T08:15:42;21.20;15.90
3976;DHT22;2002;48.812;9.180;2023-06-26T08:18:07;21.40;22.00
3976;DHT22;2002;48.812;9.180;2023-06-26T08:20:33;21.50;18.90
3976;DHT22;2002;48.812;9.180;2023-06-26T08:23:01;21.60;15.40
3976;DHT22;2002;48.812;9.180;2023-06-26T08:25:26;21.70;18.60
3976;DHT22;2002;48.812;9.180;2023-06-26T08:27:52;21.70;16.40
3976;DHT22;2002;48.812;9.180;2023-06-26T08:30:19;21.70;19.30
3976;DHT22;2002;48.812;9.180;2023-06-26T08:32:44;21.50;12.20
3976;DHT22;2002;48.812;9.180;2023-06-26T08:35:10;21.30;11.60
3976;DHT22;2002;48.812;9.180;2023-06-26T08:37:36;21.10;10.30
3976;DHT22;2002;48.812;9.180;2023-06-26T08:40:01;21.00;13.20
3976;DHT22;2002;48.812;9.180;2023-06-26T08:42:27;21.00;13.10
3976;DHT22;2002;48.812;9.180;2023-06-26T08:44:52;21.20;16.30
3976;DHT22;2002;48.812;9.180;2023-06-26T08:47:19;21.40;19.10
3976;DHT22;2002;48.812;9.180;2023-06-26T08:49:56;21.50;16.80
3976;DHT22;2002;48.812;9.180;2023-06-26T08:52:34;21.60;22.00
3976;DHT22;2002;48.812;9.180;2023-06-26T08:55:02;21.70;19.30
3976;DHT22;2002;48.812;9.180;2023-06-26T08:57:32;21.60;13.40
3976;DHT22;2002;48.812;9.180;2023-06-26T08:59:58;21.30;10.30
3976;DHT22;2002;48.812;9.180;2023-06-26T09:02:23;21.10;12.30
3976;DHT22;2002;48.812;9.180;2023-06-26T09:04:50;21.10;14.10
3976;DHT22;2002;48.812;9.180;2023-06-26T09:07:16;21.10;13.00
3976;DHT22;2002;48.812;9.180;2023-06-26T09:09:42;21.10;21.00
3976;DHT22;2002;48.812;9.180;2023-06-26T09:12:09;21.30;19.80
3976;DHT22;2002;48.812;9.180;2023-06-26T09:14:36;21.50;19.90
3976;DHT22;2002;48.812;9.180;2023-06-26T09:17:01;21.60;17.20
3976;DHT22;2002;48.812;9.180;2023-06-26T09:19:27;21.70;16.10
3976;DHT22;2002;48.812;9.180;2023-06-26T09:21:54;21.80;21.20
3976;DHT22;2002;48.812;9.180;2023-06-26T09:24:21;21.50;12.30
3976;DHT22;2002;48.812;9.180;2023-06-26T09:26:47;21.30;9.00
3976;DHT22;2002;48.812;9.180;2023-06-26T09:29:13;21.20;13.00
3976;DHT22;2002;48.812;9.180;2023-06-26T09:31:39;21.20;13.30
3976;DHT22;2002;48.812;9.180;2023-06-26T09:34:06;21.20;13.30
3976;DHT22;2002;48.812;9.180;2023-06-26T09:36:32;21.30;16.70
3976;DHT22;2002;48.812;9.180;2023-06-26T09:39:01;21.50;18.70
3976;DHT22;2002;48.812;9.180;2023-06-26T09:41:27;21.60;17.80
3976;DHT22;2002;48.812;9.180;2023-06-26T09:43:53;21.80;18.30
3976;DHT22;2002;48.812;9.180;2023-06-26T09:46:26;21.50;9.50
3976;DHT22;2002;48.812;9.180;2023-06-26T09:49:08;21.30;6.20
3976;DHT22;2002;48.812;9.180;2023-06-26T09:51:35;21.10;9.30
3976;DHT22;2002;48.812;9.180;2023-06-26T09:54:02;21.10;11.00
3976;DHT22;2002;48.812;9.180;2023-06-26T09:56:29;21.20;10.90
3976;DHT22;2002;48.812;9.180;2023-06-26T09:59:03;21.40;14.60
3976;DHT22;2002;48.812;9.180;2023-06-26T10:01:31;21.60;18.10
3976;DHT22;2002;48.812;9.180;2023-06-26T10:03:57;21.70;18.00
3976;DHT22;2002;48.812;9.180;2023-06-26T10:06:33;21.80;15.40
3976;DHT22;2002;48.812;9.180;2023-06-26T10:09:00;21.50;26.70
3976;DHT22;2002;48.812;9.180;2023-06-26T10:11:30;21.30;9.70
3976;DHT22;2002;48.812;9.180;2023-06-26T10:13:58;21.10;9.50
3976;DHT22;2002;48.812;9.180;2023-06-26T10:16:26;21.00;12.10
3976;DHT22;2002;48.812;9.180;2023-06-26T10:19:02;21.00;9.50
3976;DHT22;2002;48.812;9.180;2023-06-26T10:21:29;21.00;14.60
3976;DHT22;2002;48.812;9.180;2023-06-26T10:23:56;21.10;15.20
3976;DHT22;2002;48.812;9.180;2023-06-26T10:26:24;21.40;19.70
3976;DHT22;2002;48.812;9.180;2023-06-26T10:28:50;21.50;18.20
3976;DHT22;2002;48.812;9.180;2023-06-26T10:31:21;21.60;20.70
3976;DHT22;2002;48.812;9.180;2023-06-26T10:33:49;21.40;12.50
3976;DHT22;2002;48.812;9.180;2023-06-26T10:36:16;21.20;11.80
3976;DHT22;2002;48.812;9.180;2023-06-26T10:38:52;21.00;11.00
3976;DHT22;2002;48.812;9.180;2023-06-26T10:41:20;20.90;10.40
3976;DHT22;2002;48.812;9.180;2023-06-26T10:43:49;20.90;14.30
3976;DHT22;2002;48.812;9.180;2023-06-26T10:46:15;20.90;14.00
3976;DHT22;2002;48.812;9.180;2023-06-26T10:48:57;21.00;18.10
3976;DHT22;2002;48.812;9.180;2023-06-26T10:51:24;21.30;18.80
3976;DHT22;2002;48.812;9.180;2023-06-26T10:53:54;21.40;17.60
3976;DHT22;2002;48.812;9.180;2023-06-26T10:56:20;21.50;23.50
3976;DHT22;2002;48.812;9.180;2023-06-26T10:58:45;21.40;13.50
3976;DHT22;2002;48.812;9.180;2023-06-26T11:01:19;21.20;12.30
3976;DHT22;2002;48.812;9.180;2023-06-26T11:04:06;21.00;8.40
3976;DHT22;2002;48.812;9.180;2023-06-26T11:06:33;20.90;10.10
3976;DHT22;2002;48.812;9.180;2023-06-26T11:11:58;20.80;12.70
3976;DHT22;2002;48.812;9.180;2023-06-26T11:14:26;21.00;16.10
3976;DHT22;2002;48.812;9.180;2023-06-26T11:16:58;21.20;20.00
3976;DHT22;2002;48.812;9.180;2023-06-26T11:19:25;21.40;18.30
3976;DHT22;2002;48.812;9.180;2023-06-26T11:21:52;21.50;21.10
3976;DHT22;2002;48.812;9.180;2023-06-26T11:24:23;21.30;14.10
3976;DHT22;2002;48.812;9.180;2023-06-26T11:26:49;21.10;12.60
3976;DHT22;2002;48.812;9.180;2023-06-26T11:29:14;21.00;10.10
3976;DHT22;2002;48.812;9.180;2023-06-26T11:31:41;20.90;10.50
3976;DHT22;2002;48.812;9.180;2023-06-26T11:34:12;20.80;10.30
3976;DHT22;2002;48.812;9.180;2023-06-26T11:36:39;20.80;12.60
3976;DHT22;2002;48.812;9.180;2023-06-26T11:39:07;20.90;17.70
3976;DHT22;2002;48.812;9.180;2023-06-26T11:41:35;21.20;15.30
3976;DHT22;2002;48.812;9.180;2023-06-26T11:44:05;21.30;17.80
3976;DHT22;2002;48.812;9.180;2023-06-26T11:46:31;21.40;21.90
3976;DHT22;2002;48.812;9.180;2023-06-26T11:48:57;21.30;15.60
3976;DHT22;2002;48.812;9.180;2023-06-26T11:51:23;21.10;15.00
3976;DHT22;2002;48.812;9.180;2023-06-26T11:53:49;20.90;12.20
3976;DHT22;2002;48.812;9.180;2023-06-26T11:56:17;20.80;9.40
3976;DHT22;2002;48.812;9.180;2023-06-26T12:01:21;20.70;14.70
3976;DHT22;2002;48.812;9.180;2023-06-26T12:03:49;20.70;11.90
3976;DHT22;2002;48.812;9.180;2023-06-26T12:06:15;21.00;18.40
3976;DHT22;2002;48.812;9.180;2023-06-26T12:08:41;21.20;20.50
3976;DHT22;2002;48.812;9.180;2023-06-26T12:11:07;21.30;24.30
3976;DHT22;2002;48.812;9.180;2023-06-26T12:13:33;21.30;17.80
3976;DHT22;2002;48.812;9.180;2023-06-26T12:15:59;21.10;13.80
3976;DHT22;2002;48.812;9.180;2023-06-26T12:18:24;21.00;13.80
3976;DHT22;2002;48.812;9.180;2023-06-26T12:20:52;20.90;12.80
3976;DHT22;2002;48.812;9.180;2023-06-26T12:23:17;20.90;13.20
3976;DHT22;2002;48.812;9.180;2023-06-26T12:25:43;20.90;13.50
3976;DHT22;2002;48.812;9.180;2023-06-26T12:28:16;20.70;11.20
3976;DHT22;2002;48.812;9.180;2023-06-26T12:30:46;20.80;17.50
3976;DHT22;2002;48.812;9.180;2023-06-26T12:33:15;21.10;21.00
3976;DHT22;2002;48.812;9.180;2023-06-26T12:35:41;21.30;21.10
3976;DHT22;2002;48.812;9.180;2023-06-26T12:38:08;21.40;25.20
3976;DHT22;2002;48.812;9.180;2023-06-26T12:40:45;21.30;17.80
3976;DHT22;2002;48.812;9.180;2023-06-26T12:43:21;21.10;18.50
3976;DHT22;2002;48.812;9.180;2023-06-26T12:45:47;21.00;17.50
3976;DHT22;2002;48.812;9.180;2023-06-26T12:48:13;20.90;13.40
3976;DHT22;2002;48.812;9.180;2023-06-26T12:50:44;20.80;12.30
3976;DHT22;2002;48.812;9.180;2023-06-26T12:53:10;20.90;18.70
3976;DHT22;2002;48.812;9.180;2023-06-26T12:55:36;20.90;20.80
3976;DHT22;2002;48.812;9.180;2023-06-26T12:58:02;20.90;19.20
3976;DHT22;2002;48.812;9.180;2023-06-26T13:00:27;20.90;19.50
3976;DHT22;2002;48.812;9.180;2023-06-26T13:02:53;20.90;26.70
3976;DHT22;2002;48.812;9.180;2023-06-26T13:05:19;20.90;18.60
3976;DHT22;2002;48.812;9.180;2023-06-26T13:07:44;20.90;23.80
3976;DHT22;2002;48.812;9.180;2023-06-26T13:10:10;21.10;25.10
3976;DHT22;2002;48.812;9.180;2023-06-26T13:12:35;21.30;25.50
3976;DHT22;2002;48.812;9.180;2023-06-26T13:15:01;21.40;31.70
3976;DHT22;2002;48.812;9.180;2023-06-26T13:17:26;21.30;17.80
3976;DHT22;2002;48.812;9.180;2023-06-26T13:19:52;21.10;20.00
3976;DHT22;2002;48.812;9.180;2023-06-26T13:22:17;21.10;22.20
3976;DHT22;2002;48.812;9.180;2023-06-26T13:24:43;21.10;23.90
3976;DHT22;2002;48.812;9.180;2023-06-26T13:27:09;21.00;22.70
3976;DHT22;2002;48.812;9.180;2023-06-26T13:29:34;21.00;21.30
3976;DHT22;2002;48.812;9.180;2023-06-26T13:32:00;20.90;17.40
3976;DHT22;2002;48.812;9.180;2023-06-26T13:34:27;20.80;15.50
3976;DHT22;2002;48.812;9.180;2023-06-26T13:36:53;20.80;19.60
3976;DHT22;2002;48.812;9.180;2023-06-26T13:39:19;20.80;17.40
3976;DHT22;2002;48.812;9.180;2023-06-26T13:41:45;20.70;17.80
3976;DHT22;2002;48.812;9.180;2023-06-26T13:44:11;20.70;18.60
3976;DHT22;2002;48.812;9.180;2023-06-26T13:46:37;20.90;25.40
3976;DHT22;2002;48.812;9.180;2023-06-26T13:49:02;20.90;24.10
3976;DHT22;2002;48.812;9.180;2023-06-26T13:51:28;20.90;23.80
3976;DHT22;2002;48.812;9.180;2023-06-26T13:53:53;20.90;23.30
3976;DHT22;2002;48.812;9.180;2023-06-26T13:56:20;20.90;24.40
3976;DHT22;2002;48.812;9.180;2023-06-26T13:58:48;21.00;18.40
3976;DHT22;2002;48.812;9.180;2023-06-26T14:01:13;21.00;18.50
3976;DHT22;2002;48.812;9.180;2023-06-26T14:03:39;21.20;28.50
3976;DHT22;2002;48.812;9.180;2023-06-26T14:06:04;21.40;38.20
3976;DHT22;2002;48.812;9.180;2023-06-26T14:08:30;21.60;37.90
3976;DHT22;2002;48.812;9.180;2023-06-26T14:10:55;21.60;28.60
3976;DHT22;2002;48.812;9.180;2023-06-26T14:13:21;21.40;25.80
3976;DHT22;2002;48.812;9.180;2023-06-26T14:15:47;21.30;24.10
3976;DHT22;2002;48.812;9.180;2023-06-26T14:18:12;21.30;23.70
3976;DHT22;2002;48.812;9.180;2023-06-26T14:20:38;21.20;22.00
3976;DHT22;2002;48.812;9.180;2023-06-26T14:23:03;21.10;21.90
3976;DHT22;2002;48.812;9.180;2023-06-26T14:25:29;21.10;16.90
3976;DHT22;2002;48.812;9.180;2023-06-26T14:27:56;21.10;22.40
3976;DHT22;2002;48.812;9.180;2023-06-26T14:30:22;21.00;16.50
3976;DHT22;2002;48.812;9.180;2023-06-26T14:32:47;21.00;15.80
3976;DHT22;2002;48.812;9.180;2023-06-26T14:35:13;21.20;28.80
3976;DHT22;2002;48.812;9.180;2023-06-26T14:37:38;21.40;31.20
3976;DHT22;2002;48.812;9.180;2023-06-26T14:40:06;21.60;30.60
3976;DHT22;2002;48.812;9.180;2023-06-26T14:42:32;21.50;20.60
3976;DHT22;2002;48.812;9.180;2023-06-26T14:44:57;21.40;21.70
3976;DHT22;2002;48.812;9.180;2023-06-26T14:47:23;21.30;21.70
3976;DHT22;2002;48.812;9.180;2023-06-26T14:49:49;21.30;17.50
3976;DHT22;2002;48.812;9.180;2023-06-26T14:52:14;21.20;18.80
3976;DHT22;2002;48.812;9.180;2023-06-26T14:54:40;21.10;16.70
3976;DHT22;2002;48.812;9.180;2023-06-26T14:57:06;21.00;17.50
3976;DHT22;2002;48.812;9.180;2023-06-26T14:59:32;21.00;16.10
3976;DHT22;2002;48.812;9.180;2023-06-26T15:01:58;21.00;21.00
3976;DHT22;2002;48.812;9.180;2023-06-26T15:04:23;21.10;20.20
3976;DHT22;2002;48.812;9.180;2023-06-26T15:06:49;21.20;23.00
3976;DHT22;2002;48.812;9.180;2023-06-26T15:09:14;21.20;22.60
3976;DHT22;2002;48.812;9.180;2023-06-26T15:11:40;21.20;21.10
3976;DHT22;2002;48.812;9.180;2023-06-26T15:14:06;21.20;21.70
3976;DHT22;2002;48.812;9.180;2023-06-26T15:16:31;21.10;19.40
3976;DHT22;2002;48.812;9.180;2023-06-26T15:18:57;21.10;25.30
3976;DHT22;2002;48.812;9.180;2023-06-26T15:21:22;21.20;25.40
3976;DHT22;2002;48.812;9.180;2023-06-26T15:23:49;21.20;24.00
3976;DHT22;2002;48.812;9.180;2023-06-26T15:26:15;21.20;22.60
3976;DHT22;2002;48.812;9.180;2023-06-26T15:28:40;21.10;22.10
3976;DHT22;2002;48.812;9.180;2023-06-26T15:31:06;21.10;23.80
3976;DHT22;2002;48.812;9.180;2023-06-26T15:33:31;21.10;22.30
3976;DHT22;2002;48.812;9.180;2023-06-26T15:35:57;21.10;22.70
3976;DHT22;2002;48.812;9.180;2023-06-26T15:38:23;21.00;17.80
3976;DHT22;2002;48.812;9.180;2023-06-26T15:40:48;21.10;21.10
3976;DHT22;2002;48.812;9.180;2023-06-26T15:43:14;21.10;23.00
3976;DHT22;2002;48.812;9.180;2023-06-26T15:45:39;21.20;26.40
3976;DHT22;2002;48.812;9.180;2023-06-26T15:48:05;21.40;32.10
3976;DHT22;2002;48.812;9.180;2023-06-26T15:50:31;21.50;26.60
3976;DHT22;2002;48.812;9.180;2023-06-26T15:52:56;21.40;23.90
3976;DHT22;2002;48.812;9.180;2023-06-26T15:55:22;21.30;22.40
3976;DHT22;2002;48.812;9.180;2023-06-26T15:57:47;21.20;21.80
3976;DHT22;2002;48.812;9.180;2023-06-26T16:00:13;21.10;23.70
3976;DHT22;2002;48.812;9.180;2023-06-26T16:02:40;21.20;23.30
3976;DHT22;2002;48.812;9.180;2023-06-26T16:05:06;21.20;22.90